SBPK/PET METAR and TAF weather

Enter ICAO airport designator
Station Type Date Time Source
SBPK METAR 2023/09/28 18:00 UTC NOAA

SBPK 281800Z 09019KT 9999 SCT035 22/11 Q1020


Station Type Date Time Source
SBPK Decoded METAR 2023/09/28 18:00 UTC NOAA

Pelotas, Brazil (SBPK) 31-52S 052-21W 13M
Sep 28, 2023 - 02:00 PM EDT / 2023.09.28 1800 UTC
Wind: from the E (090 degrees) at 22 MPH (19 KT):0
Visibility: greater than 7 mile(s):0
Sky conditions: partly cloudy
Temperature: 71 F (22 C)
Dew Point: 51 F (11 C)
Relative Humidity: 49%
Pressure (altimeter): 30.12 in. Hg (1020 hPa)
ob: SBPK 281800Z 09019KT 9999 SCT035 22/11 Q1020
cycle: 18

Station Type Date Time Source
SBPK TAF 2023/09/28 18:09 UTC NOAA

TAF SBPK 281500Z 2818/2918 08015KT 9999 SCT040 TN15/2908Z TX22/2918Z PROB40 2818/2822 09015G30KT
BECMG 2822/2824 CAVOK
BECMG 2912/2914 9999 SCT035
TEMPO 2914/2917 06015G25KT
RMK PEH

Example: see airport list